createdAt,value
2023-03-27T00:01:11.759Z,1.67
2023-03-27T00:03:38.770Z,1.50
2023-03-27T00:06:11.398Z,1.42
2023-03-27T00:08:38.728Z,1.45
2023-03-27T00:11:08.136Z,1.85
2023-03-27T00:13:35.494Z,1.60
2023-03-27T00:16:05.247Z,1.95
2023-03-27T00:18:33.690Z,2.03
2023-03-27T00:21:01.531Z,1.23
2023-03-27T00:23:29.571Z,1.15
2023-03-27T00:26:00.455Z,1.63
2023-03-27T00:28:29.252Z,1.25
2023-03-27T00:30:57.390Z,1.58
2023-03-27T00:33:24.891Z,2.10
2023-03-27T00:35:51.732Z,2.20
2023-03-27T00:38:19.006Z,1.55
2023-03-27T00:40:50.841Z,1.90
2023-03-27T00:43:29.208Z,1.88
2023-03-27T00:45:59.149Z,1.88
2023-03-27T00:48:26.281Z,1.80
2023-03-27T00:50:53.341Z,2.20
2023-03-27T00:53:25.257Z,2.13
2023-03-27T00:55:58.787Z,2.05
2023-03-27T00:58:29.453Z,1.67
2023-03-27T01:00:56.648Z,2.13
2023-03-27T01:03:27.997Z,1.60
2023-03-27T01:05:55.079Z,1.55
2023-03-27T01:08:22.048Z,0.70
2023-03-27T01:11:14.423Z,1.42
2023-03-27T01:14:00.273Z,0.82
2023-03-27T01:17:07.606Z,0.60
2023-03-27T01:19:45.965Z,0.93
2023-03-27T01:22:26.108Z,0.57
2023-03-27T01:25:21.743Z,1.08
2023-03-27T01:28:08.455Z,0.68
2023-03-27T01:30:55.567Z,0.68
2023-03-27T01:33:40.691Z,0.60
2023-03-27T01:36:14.823Z,0.75
2023-03-27T01:38:41.667Z,0.93
2023-03-27T01:41:27.706Z,1.08
2023-03-27T01:43:58.377Z,0.95
2023-03-27T01:46:31.667Z,1.50
2023-03-27T01:49:03.810Z,1.27
2023-03-27T01:51:36.573Z,0.85
2023-03-27T01:54:09.897Z,1.13
2023-03-27T01:56:51.776Z,1.20
2023-03-27T01:59:21.616Z,1.20
2023-03-27T02:01:59.270Z,0.95
2023-03-27T02:04:29.312Z,0.85
2023-03-27T02:07:00.705Z,1.52
2023-03-27T02:09:34.607Z,1.33
2023-03-27T02:12:08.212Z,1.80
2023-03-27T02:14:39.610Z,1.25
2023-03-27T02:17:10.289Z,1.48
2023-03-27T02:20:16.223Z,1.40
2023-03-27T02:22:45.840Z,1.38
2023-03-27T02:25:27.675Z,1.70
2023-03-27T02:28:19.856Z,1.23
2023-03-27T02:31:33.450Z,1.30
2023-03-27T02:34:21.269Z,0.68
2023-03-27T02:37:02.381Z,1.00
2023-03-27T02:39:35.073Z,1.02
2023-03-27T02:42:04.560Z,1.13
2023-03-27T02:44:51.774Z,1.13
2023-03-27T02:47:34.458Z,0.85
2023-03-27T02:50:09.628Z,0.57
2023-03-27T02:52:51.754Z,0.77
2023-03-27T02:55:21.326Z,1.00
2023-03-27T02:57:59.516Z,0.73
2023-03-27T03:00:28.409Z,0.52
2023-03-27T03:03:32.086Z,0.85
2023-03-27T03:05:58.915Z,0.95
2023-03-27T03:08:30.612Z,0.82
2023-03-27T03:11:02.800Z,0.80
2023-03-27T03:13:29.342Z,1.00
2023-03-27T03:15:55.855Z,1.10
2023-03-27T03:18:22.655Z,0.90
2023-03-27T03:20:49.282Z,0.82
2023-03-27T03:23:16.064Z,1.42
2023-03-27T03:25:44.725Z,1.00
2023-03-27T03:28:11.264Z,1.00
2023-03-27T03:30:42.158Z,1.20
2023-03-27T03:35:36.284Z,1.20
2023-03-27T03:38:03.816Z,1.00
2023-03-27T03:40:30.370Z,1.23
2023-03-27T03:42:56.850Z,1.30
2023-03-27T03:45:23.340Z,0.82
2023-03-27T03:47:49.973Z,0.80
2023-03-27T03:50:16.761Z,1.60
2023-03-27T03:52:43.448Z,1.60
2023-03-27T03:55:11.787Z,1.38
2023-03-27T03:57:38.429Z,0.85
2023-03-27T04:00:09.182Z,1.55
2023-03-27T04:02:37.591Z,1.00
2023-03-27T04:05:09.154Z,1.20
2023-03-27T04:07:37.346Z,1.00
2023-03-27T04:10:04.664Z,1.42
2023-03-27T04:12:31.216Z,1.55
2023-03-27T04:14:57.726Z,1.38
2023-03-27T04:17:26.490Z,1.95
2023-03-27T04:19:57.396Z,1.67
2023-03-27T04:22:24.312Z,1.50
2023-03-27T04:24:50.806Z,1.60
2023-03-27T04:27:17.876Z,1.20
2023-03-27T04:29:47.468Z,1.75
2023-03-27T04:32:19.229Z,1.77
2023-03-27T04:34:50.753Z,1.15
2023-03-27T04:37:18.463Z,1.27
2023-03-27T04:39:50.172Z,1.65
2023-03-27T04:42:16.811Z,1.08
2023-03-27T04:44:46.248Z,0.70
2023-03-27T04:47:12.787Z,0.90
2023-03-27T04:49:40.659Z,0.80
2023-03-27T04:52:08.092Z,0.70
2023-03-27T04:54:35.302Z,0.60
2023-03-27T04:57:03.600Z,0.65
2023-03-27T04:59:31.936Z,0.90
2023-03-27T05:01:59.509Z,0.95
2023-03-27T05:04:29.067Z,1.20
2023-03-27T05:06:56.167Z,1.20
2023-03-27T05:09:23.316Z,1.08
2023-03-27T05:11:50.607Z,1.30
2023-03-27T05:14:21.052Z,1.10
2023-03-27T05:16:52.159Z,1.55
2023-03-27T05:19:19.572Z,1.13
2023-03-27T05:21:47.001Z,0.90
2023-03-27T05:24:15.370Z,1.10
2023-03-27T05:26:43.029Z,1.27
2023-03-27T05:29:10.122Z,1.17
2023-03-27T05:31:37.383Z,1.10
2023-03-27T05:34:04.291Z,1.52
2023-03-27T05:36:30.800Z,1.40
2023-03-27T05:38:57.945Z,1.35
2023-03-27T05:41:25.028Z,1.80
2023-03-27T05:43:51.790Z,1.38
2023-03-27T05:46:20.751Z,1.65
2023-03-27T05:48:48.231Z,2.08
2023-03-27T05:51:15.966Z,1.90
2023-03-27T05:53:42.953Z,1.80
2023-03-27T05:56:09.798Z,1.65
2023-03-27T05:58:36.570Z,1.63
2023-03-27T06:01:03.476Z,2.20
2023-03-27T06:03:30.907Z,2.03
2023-03-27T06:06:00.272Z,2.03
2023-03-27T06:08:29.424Z,2.83
2023-03-27T06:10:56.165Z,2.35
2023-03-27T06:13:24.165Z,1.95
2023-03-27T06:15:54.009Z,2.50
2023-03-27T06:18:21.043Z,1.80
2023-03-27T06:20:47.628Z,2.63
2023-03-27T06:23:14.485Z,1.85
2023-03-27T06:25:41.221Z,2.17
2023-03-27T06:28:09.601Z,2.13
2023-03-27T06:30:38.356Z,1.55
2023-03-27T06:33:06.158Z,2.10
2023-03-27T06:35:33.525Z,2.58
2023-03-27T06:38:02.718Z,1.50
2023-03-27T06:40:31.456Z,1.10
2023-03-27T06:45:43.328Z,1.75
2023-03-27T06:48:18.699Z,1.67
2023-03-27T06:50:48.674Z,1.65
2023-03-27T06:53:26.558Z,1.90
2023-03-27T06:55:55.323Z,1.35
2023-03-27T06:58:22.257Z,1.73
2023-03-27T07:00:50.212Z,1.95
2023-03-27T07:03:18.213Z,1.55
2023-03-27T07:05:45.203Z,1.67
2023-03-27T07:08:23.447Z,1.65
2023-03-27T07:11:07.518Z,1.90
2023-03-27T07:13:38.102Z,1.40
2023-03-27T07:16:05.387Z,1.73
2023-03-27T07:18:32.135Z,1.98
2023-03-27T07:20:59.117Z,1.20
2023-03-27T07:23:26.982Z,1.15
2023-03-27T07:25:57.959Z,1.42
2023-03-27T07:28:24.622Z,1.58
2023-03-27T07:30:51.366Z,1.90
2023-03-27T07:33:18.588Z,2.00
2023-03-27T07:35:46.714Z,1.10
2023-03-27T07:38:14.477Z,1.33
2023-03-27T07:40:43.078Z,0.95
2023-03-27T07:43:09.748Z,1.10
2023-03-27T07:45:36.370Z,1.27
2023-03-27T07:48:08.598Z,1.48
2023-03-27T07:50:36.068Z,1.35
2023-03-27T07:53:02.834Z,0.95
2023-03-27T07:55:32.215Z,1.45
2023-03-27T07:58:02.460Z,1.95
2023-03-27T08:00:31.360Z,1.48
2023-03-27T08:03:12.185Z,1.17
2023-03-27T08:05:38.825Z,2.03
2023-03-27T08:08:05.812Z,1.58
2023-03-27T08:10:32.766Z,1.05
2023-03-27T08:12:59.225Z,1.75
2023-03-27T08:15:25.836Z,1.50
2023-03-27T08:17:54.855Z,1.02
2023-03-27T08:20:23.983Z,1.02
2023-03-27T08:22:54.139Z,0.88
2023-03-27T08:25:22.492Z,1.23
2023-03-27T08:27:49.961Z,1.30
2023-03-27T08:30:17.359Z,1.45
2023-03-27T08:32:44.616Z,1.48
2023-03-27T08:35:12.417Z,1.30
2023-03-27T08:37:39.685Z,1.80
2023-03-27T08:40:13.794Z,0.98
2023-03-27T08:42:42.837Z,1.30
2023-03-27T08:45:18.549Z,1.60
2023-03-27T08:47:50.144Z,1.35
2023-03-27T08:50:40.812Z,1.30
2023-03-27T08:53:14.651Z,1.48
2023-03-27T08:55:43.231Z,1.40
2023-03-27T08:58:20.732Z,1.45
2023-03-27T09:01:11.603Z,1.60
2023-03-27T09:04:07.349Z,1.83
2023-03-27T09:07:15.822Z,1.58
2023-03-27T09:09:52.874Z,1.13
2023-03-27T09:12:43.760Z,1.42
2023-03-27T09:15:14.030Z,1.30
2023-03-27T09:17:48.966Z,1.33
2023-03-27T09:20:25.872Z,1.35
2023-03-27T09:22:58.747Z,1.50
2023-03-27T09:25:47.246Z,1.77
2023-03-27T09:28:20.965Z,0.95
2023-03-27T09:30:47.716Z,1.40
2023-03-27T09:33:14.457Z,1.40
2023-03-27T09:35:41.116Z,1.50
2023-03-27T09:38:24.538Z,1.77
2023-03-27T09:40:57.119Z,2.13
2023-03-27T09:43:28.846Z,1.25
2023-03-27T09:45:56.681Z,1.67
2023-03-27T09:48:36.710Z,1.73
2023-03-27T09:51:05.206Z,1.98
2023-03-27T09:53:32.384Z,1.58
2023-03-27T09:56:05.424Z,1.27
2023-03-27T09:58:41.040Z,1.50
2023-03-27T10:01:13.393Z,1.48
2023-03-27T10:03:55.148Z,1.75
2023-03-27T10:06:53.688Z,1.08
2023-03-27T10:09:29.203Z,2.17
2023-03-27T10:12:04.906Z,2.00
2023-03-27T10:14:38.307Z,1.58
2023-03-27T10:17:05.262Z,1.65
2023-03-27T10:19:38.797Z,1.75
2023-03-27T10:22:19.357Z,2.00
2023-03-27T10:24:47.061Z,1.08
2023-03-27T10:27:19.656Z,1.45
2023-03-27T10:29:46.879Z,1.23
2023-03-27T10:32:13.894Z,1.25
2023-03-27T10:34:54.229Z,1.88
2023-03-27T10:37:32.384Z,1.25
2023-03-27T10:40:03.521Z,1.38
2023-03-27T10:42:31.857Z,1.90
2023-03-27T10:44:59.074Z,1.10
2023-03-27T10:47:28.248Z,1.85
2023-03-27T10:50:18.602Z,1.50
2023-03-27T10:53:16.137Z,1.45
2023-03-27T10:56:02.929Z,1.65
2023-03-27T10:58:38.888Z,2.15
2023-03-27T11:01:34.783Z,1.50
2023-03-27T11:04:06.745Z,1.60
2023-03-27T11:06:40.863Z,0.98
2023-03-27T11:09:31.462Z,1.45
2023-03-27T11:12:01.658Z,1.38
2023-03-27T11:14:47.192Z,1.20
2023-03-27T11:17:17.879Z,1.45
2023-03-27T11:19:54.754Z,1.40
2023-03-27T11:22:27.919Z,1.27
2023-03-27T11:25:06.041Z,1.48
2023-03-27T11:27:41.451Z,1.30
2023-03-27T11:30:08.343Z,1.73
2023-03-27T11:32:46.903Z,1.20
2023-03-27T11:35:25.062Z,1.52
2023-03-27T11:38:00.671Z,1.80
2023-03-27T11:40:27.669Z,1.23
2023-03-27T11:42:54.320Z,1.33
2023-03-27T11:45:25.685Z,0.90
2023-03-27T11:47:55.689Z,1.38
2023-03-27T11:50:26.560Z,1.38
2023-03-27T11:53:30.201Z,1.10
2023-03-27T11:56:11.736Z,1.23
2023-03-27T11:59:19.787Z,1.80
2023-03-27T12:01:52.439Z,1.38
2023-03-27T12:04:40.082Z,1.83
2023-03-27T12:07:12.184Z,1.60
2023-03-27T12:10:13.329Z,1.55
2023-03-27T12:13:34.975Z,1.30
2023-03-27T12:16:15.030Z,1.25
2023-03-27T12:18:51.208Z,1.20
2023-03-27T12:21:46.590Z,1.05
2023-03-27T12:24:36.168Z,1.40
2023-03-27T12:27:11.929Z,1.67
2023-03-27T12:30:03.065Z,1.13
2023-03-27T12:32:48.535Z,1.20
2023-03-27T12:35:23.223Z,1.30
2023-03-27T12:38:06.263Z,1.30
2023-03-27T12:40:40.554Z,1.73
2023-03-27T12:43:22.074Z,1.40
2023-03-27T12:46:13.996Z,1.58
2023-03-27T12:48:58.662Z,1.27
2023-03-27T12:51:47.512Z,1.33
2023-03-27T12:54:36.260Z,1.52
2023-03-27T12:57:05.916Z,1.30
2023-03-27T12:59:38.354Z,1.23
2023-03-27T13:02:04.819Z,1.33
2023-03-27T13:04:47.858Z,1.33
2023-03-27T13:07:36.382Z,1.73
2023-03-27T13:10:24.693Z,1.52
2023-03-27T13:12:51.372Z,1.58
2023-03-27T13:15:17.908Z,1.52
2023-03-27T13:17:56.112Z,1.95
2023-03-27T13:20:22.714Z,1.60
2023-03-27T13:23:08.284Z,1.88
2023-03-27T13:25:56.153Z,2.13
2023-03-27T13:28:36.060Z,1.50
2023-03-27T13:31:05.144Z,1.98
2023-03-27T13:33:31.780Z,1.35
2023-03-27T13:35:58.451Z,1.52
2023-03-27T13:38:53.234Z,0.52
2023-03-27T13:41:44.164Z,1.20
2023-03-27T13:44:36.774Z,1.55
2023-03-27T13:47:35.814Z,1.60
2023-03-27T13:50:05.381Z,1.40
2023-03-27T13:52:47.328Z,1.35
2023-03-27T13:55:19.888Z,1.30
2023-03-27T13:58:11.040Z,1.60
2023-03-27T14:00:43.717Z,1.10
2023-03-27T14:03:36.902Z,1.48
2023-03-27T14:06:38.293Z,1.55
2023-03-27T14:09:17.024Z,1.15
2023-03-27T14:12:08.394Z,1.30
2023-03-27T14:14:51.211Z,1.55
2023-03-27T14:18:03.956Z,1.15
2023-03-27T14:20:33.118Z,1.10
2023-03-27T14:23:05.993Z,1.08
2023-03-27T14:25:36.501Z,1.67
2023-03-27T14:28:03.203Z,1.40
2023-03-27T14:30:34.102Z,1.20
2023-03-27T14:33:06.851Z,2.20
2023-03-27T14:35:39.656Z,1.67
2023-03-27T14:38:25.312Z,1.25
2023-03-27T14:40:56.670Z,1.27
2023-03-27T14:43:26.676Z,1.45
2023-03-27T14:45:57.766Z,1.67
2023-03-27T14:48:33.178Z,0.90
2023-03-27T14:51:02.010Z,1.60
2023-03-27T14:53:44.445Z,1.15
2023-03-27T14:56:47.337Z,1.27
2023-03-27T14:59:42.776Z,1.60
2023-03-27T15:02:34.685Z,1.30
2023-03-27T15:05:08.336Z,1.65
2023-03-27T15:07:36.001Z,1.55
2023-03-27T15:10:26.626Z,1.80
2023-03-27T15:12:54.479Z,1.67
2023-03-27T15:15:34.931Z,1.30
2023-03-27T15:20:34.373Z,1.83
2023-03-27T15:23:06.963Z,1.30
2023-03-27T15:25:42.622Z,1.20
2023-03-27T15:28:20.859Z,1.45
2023-03-27T15:30:51.380Z,1.42
2023-03-27T15:33:22.295Z,1.33
2023-03-27T15:35:52.374Z,1.75
2023-03-27T15:38:29.009Z,1.40
2023-03-27T15:41:18.612Z,1.10
2023-03-27T15:43:46.636Z,1.35
2023-03-27T15:46:14.937Z,1.58
2023-03-27T15:51:21.171Z,1.65
2023-03-27T15:53:50.069Z,1.10
2023-03-27T15:56:20.244Z,1.17
2023-03-27T15:59:05.412Z,1.38
2023-03-27T16:01:44.093Z,1.52
2023-03-27T16:04:19.557Z,1.77
2023-03-27T16:06:48.814Z,1.00
2023-03-27T16:09:25.722Z,1.33
2023-03-27T16:11:54.273Z,1.15
2023-03-27T16:14:44.012Z,1.20
2023-03-27T16:17:20.603Z,1.25
2023-03-27T16:19:57.358Z,1.40
2023-03-27T16:22:35.361Z,0.98
2023-03-27T16:25:03.780Z,1.08
2023-03-27T16:27:36.471Z,1.30
2023-03-27T16:30:05.590Z,1.35
2023-03-27T16:32:32.374Z,1.30
2023-03-27T16:34:58.919Z,1.33
2023-03-27T16:37:26.582Z,1.83
2023-03-27T16:39:54.493Z,1.75
2023-03-27T16:42:25.877Z,0.93
2023-03-27T16:44:53.211Z,1.05
2023-03-27T16:47:20.595Z,1.17
2023-03-27T16:49:56.182Z,1.65
2023-03-27T16:52:34.583Z,1.60
2023-03-27T16:55:02.322Z,1.20
2023-03-27T16:57:29.338Z,1.45
2023-03-27T16:59:55.959Z,1.42
2023-03-27T17:02:25.454Z,1.73
2023-03-27T17:04:52.222Z,1.58
2023-03-27T17:07:18.852Z,1.50
2023-03-27T17:09:45.962Z,1.48
2023-03-27T17:12:12.627Z,1.38
2023-03-27T17:14:42.063Z,1.10
2023-03-27T17:17:08.645Z,1.30
2023-03-27T17:19:35.526Z,1.55
2023-03-27T17:22:02.098Z,1.50
2023-03-27T17:24:28.607Z,1.55
2023-03-27T17:26:55.369Z,1.60
2023-03-27T17:29:21.964Z,1.83
2023-03-27T17:31:48.600Z,1.45
2023-03-27T17:34:15.430Z,1.20
2023-03-27T17:36:49.593Z,1.20
2023-03-27T17:39:21.155Z,1.52
2023-03-27T17:41:47.748Z,0.90
2023-03-27T17:44:14.416Z,1.33
2023-03-27T17:46:41.048Z,1.63
2023-03-27T17:49:07.676Z,0.93
2023-03-27T17:51:35.443Z,1.30
2023-03-27T17:54:02.048Z,1.30
2023-03-27T17:56:28.592Z,1.20
2023-03-27T17:58:56.216Z,1.73
2023-03-27T18:01:24.398Z,1.90
2023-03-27T18:03:51.710Z,1.50
2023-03-27T18:06:18.854Z,1.90
2023-03-27T18:08:48.479Z,1.90
2023-03-27T18:11:16.212Z,1.70
2023-03-27T18:13:43.130Z,1.85
2023-03-27T18:16:12.995Z,1.58
2023-03-27T18:18:39.862Z,1.38
2023-03-27T18:21:06.830Z,2.20
2023-03-27T18:23:35.105Z,1.52
2023-03-27T18:26:08.441Z,1.23
2023-03-27T18:28:35.832Z,1.88
2023-03-27T18:31:05.395Z,1.67
2023-03-27T18:33:32.170Z,1.83
2023-03-27T18:35:59.048Z,1.40
2023-03-27T18:38:27.448Z,1.58
2023-03-27T18:40:56.351Z,1.75
2023-03-27T18:43:23.672Z,1.75
2023-03-27T18:46:00.618Z,1.80
2023-03-27T18:48:28.212Z,1.73
2023-03-27T18:51:05.839Z,1.38
2023-03-27T18:53:32.637Z,1.77
2023-03-27T18:55:59.741Z,1.90
2023-03-27T18:58:28.047Z,1.73
2023-03-27T19:00:55.745Z,1.90
2023-03-27T19:03:23.833Z,1.70
2023-03-27T19:05:51.651Z,1.67
2023-03-27T19:08:19.884Z,1.60
2023-03-27T19:10:46.514Z,1.67
2023-03-27T19:13:13.127Z,2.10
2023-03-27T19:15:41.103Z,1.58
2023-03-27T19:18:08.021Z,1.73
2023-03-27T19:20:34.566Z,2.03
2023-03-27T19:23:01.120Z,1.70
2023-03-27T19:25:27.791Z,1.30
2023-03-27T19:27:54.649Z,1.80
2023-03-27T19:30:21.366Z,2.20
2023-03-27T19:32:47.949Z,1.92
2023-03-27T19:35:14.548Z,1.60
2023-03-27T19:37:41.766Z,1.77
2023-03-27T19:40:09.614Z,1.73
2023-03-27T19:42:36.413Z,1.70
2023-03-27T19:45:03.060Z,2.03
2023-03-27T19:47:29.719Z,2.15
2023-03-27T19:49:56.289Z,2.22
2023-03-27T19:52:23.169Z,1.35
2023-03-27T19:54:49.955Z,2.17
2023-03-27T19:57:16.587Z,2.33
2023-03-27T19:59:43.333Z,1.52
2023-03-27T20:02:12.159Z,2.08
2023-03-27T20:04:39.052Z,3.03
2023-03-27T20:07:07.592Z,2.35
2023-03-27T20:09:34.778Z,2.38
2023-03-27T20:12:01.456Z,1.80
2023-03-27T20:14:28.059Z,2.67
2023-03-27T20:16:54.652Z,2.22
2023-03-27T20:19:22.775Z,1.85
2023-03-27T20:21:49.312Z,2.88
2023-03-27T20:24:17.523Z,1.75
2023-03-27T20:26:48.227Z,2.88
2023-03-27T20:29:17.519Z,2.20
2023-03-27T20:31:44.134Z,2.40
2023-03-27T20:34:10.829Z,1.92
2023-03-27T20:36:39.206Z,2.63
2023-03-27T20:39:07.321Z,2.35
2023-03-27T20:41:34.626Z,1.77
2023-03-27T20:44:02.748Z,3.00
2023-03-27T20:46:30.486Z,2.42
2023-03-27T20:48:57.256Z,2.20
2023-03-27T20:51:24.617Z,2.33
2023-03-27T20:53:55.812Z,2.00
2023-03-27T20:56:23.465Z,2.00
2023-03-27T20:58:51.460Z,2.67
2023-03-27T21:01:20.851Z,2.22
2023-03-27T21:03:49.689Z,2.35
2023-03-27T21:06:18.801Z,1.80
2023-03-27T21:08:46.033Z,2.15
2023-03-27T21:11:13.452Z,2.58
2023-03-27T21:13:40.748Z,2.38
2023-03-27T21:16:07.811Z,1.77
2023-03-27T21:18:34.453Z,1.70
2023-03-27T21:21:01.089Z,1.80
2023-03-27T21:23:27.670Z,2.40
2023-03-27T21:25:55.256Z,1.70
2023-03-27T21:28:21.782Z,1.60
2023-03-27T21:30:49.037Z,1.92
2023-03-27T21:33:16.500Z,1.95
2023-03-27T21:35:46.877Z,2.00
2023-03-27T21:38:15.592Z,2.10
2023-03-27T21:40:42.946Z,2.08
2023-03-27T21:43:09.523Z,2.72
2023-03-27T21:45:36.430Z,1.98
2023-03-27T21:48:03.322Z,2.28
2023-03-27T21:50:29.913Z,3.00
2023-03-27T21:52:56.877Z,2.60
2023-03-27T21:55:23.616Z,3.08
2023-03-27T21:57:51.187Z,2.25
2023-03-27T22:00:18.207Z,3.35
2023-03-27T22:02:45.002Z,2.95
2023-03-27T22:05:11.701Z,2.53
2023-03-27T22:07:38.211Z,2.10
2023-03-27T22:10:06.332Z,2.63
2023-03-27T22:12:36.715Z,2.20
2023-03-27T22:15:04.920Z,2.25
2023-03-27T22:17:31.746Z,2.65
2023-03-27T22:19:59.184Z,2.22
2023-03-27T22:22:26.706Z,2.38
2023-03-27T22:24:53.203Z,2.72
2023-03-27T22:27:19.780Z,2.50
2023-03-27T22:29:46.305Z,2.72
2023-03-27T22:32:12.817Z,2.20
2023-03-27T22:34:39.676Z,2.78
2023-03-27T22:37:06.730Z,1.90
2023-03-27T22:39:33.332Z,2.30
2023-03-27T22:41:59.881Z,2.25
2023-03-27T22:44:26.609Z,2.20
2023-03-27T22:46:53.316Z,2.45
2023-03-27T22:49:19.925Z,2.42
2023-03-27T22:51:46.624Z,2.53
2023-03-27T22:54:13.136Z,3.65
2023-03-27T22:56:39.681Z,2.45
2023-03-27T22:59:06.552Z,1.50
2023-03-27T23:01:33.138Z,3.30
2023-03-27T23:03:59.817Z,2.60
2023-03-27T23:06:26.660Z,2.17
2023-03-27T23:08:53.414Z,2.22
2023-03-27T23:11:20.471Z,2.38
2023-03-27T23:13:47.115Z,2.45
2023-03-27T23:16:13.698Z,2.83
2023-03-27T23:18:40.414Z,2.22
2023-03-27T23:21:09.316Z,3.05
2023-03-27T23:23:37.149Z,2.03
2023-03-27T23:26:04.832Z,2.92
2023-03-27T23:28:33.833Z,3.10
2023-03-27T23:31:02.495Z,2.35
2023-03-27T23:33:32.843Z,2.22
2023-03-27T23:36:06.055Z,2.47
2023-03-27T23:38:33.009Z,2.40
2023-03-27T23:41:01.022Z,3.05
2023-03-27T23:43:28.969Z,1.95
2023-03-27T23:45:56.063Z,2.40
2023-03-27T23:48:23.328Z,3.20
2023-03-27T23:50:50.235Z,2.60
2023-03-27T23:53:16.982Z,1.98
2023-03-27T23:55:43.784Z,2.30
2023-03-27T23:58:10.248Z,2.67
